Time;durP1;ratioP1;P1;durP2;ratioP2;P2;SDS_P1;SDS_P2;PMS_P1;PMS_P2;Temp;Humidity;BMP_temperature;BMP_pressure;BME280_temperature;BME280_humidity;BME280_pressure;Samples;Min_cycle;Max_cycle;Signal;HPM_P1;HPM_P2
2022/04/23 00:01:27;;;;;;;7.20;4.23;;;16.30;97.40;;;;;;5052786;28;20490;-72
2022/04/23 00:03:54;;;;;;;7.90;2.57;;;16.30;97.70;;;;;;5053091;28;20466;-71
2022/04/23 00:06:21;;;;;;;4.53;2.17;;;16.30;97.60;;;;;;5053185;28;20450;-70
2022/04/23 00:08:48;;;;;;;5.20;2.80;;;16.40;97.70;;;;;;5053369;28;20450;-71
2022/04/23 00:11:15;;;;;;;6.00;1.90;;;16.40;98.10;;;;;;5052908;28;20469;-71
2022/04/23 00:13:42;;;;;;;8.83;2.80;;;16.40;97.40;;;;;;5052889;28;20470;-71
2022/04/23 00:16:10;;;;;;;8.50;3.10;;;16.40;97.70;;;;;;5053035;28;20473;-72
2022/04/23 00:18:39;;;;;;;4.97;2.40;;;16.50;97.50;;;;;;5052792;28;20527;-71
2022/04/23 00:21:06;;;;;;;7.57;2.57;;;16.40;96.20;;;;;;5053147;28;20449;-72
2022/04/23 00:23:34;;;;;;;4.60;2.13;;;16.50;96.20;;;;;;5052805;28;20477;-71
2022/04/23 00:26:01;;;;;;;7.00;2.30;;;16.60;95.60;;;;;;5052560;28;20450;-72
2022/04/23 00:28:28;;;;;;;5.60;2.77;;;16.70;96.60;;;;;;5052772;28;20453;-71
2022/04/23 00:30:55;;;;;;;8.47;2.57;;;16.70;96.70;;;;;;5052591;28;20453;-73
2022/04/23 00:33:22;;;;;;;9.10;3.10;;;16.80;96.30;;;;;;5052665;28;21062;-73
2022/04/23 00:35:51;;;;;;;6.83;3.00;;;16.80;95.10;;;;;;5052718;28;20465;-73
2022/04/23 00:38:18;;;;;;;6.47;2.43;;;16.70;96.00;;;;;;5052740;28;20932;-72
2022/04/23 00:40:46;;;;;;;4.70;2.27;;;16.80;96.20;;;;;;5052517;28;20568;-72
2022/04/23 00:43:27;;;;;;;9.10;2.03;;;16.80;96.00;;;;;;5052153;28;20966;-72
2022/04/23 00:45:54;;;;;;;7.83;2.37;;;16.90;95.50;;;;;;5052582;28;20604;-72
2022/04/23 00:48:22;;;;;;;6.40;2.30;;;16.90;94.90;;;;;;5052289;28;20462;-73
2022/04/23 00:50:52;;;;;;;5.90;2.40;;;16.70;94.30;;;;;;5052522;28;20438;-72
2022/04/23 00:53:21;;;;;;;5.90;2.50;;;16.70;94.20;;;;;;5052060;28;20478;-71
2022/04/23 00:55:49;;;;;;;7.03;2.60;;;16.80;93.60;;;;;;5052212;28;20546;-72
2022/04/23 00:58:17;;;;;;;9.83;2.57;;;16.90;93.80;;;;;;5052006;28;20461;-71
2022/04/23 01:00:44;;;;;;;6.50;2.37;;;16.90;93.70;;;;;;5051976;28;20491;-72
2022/04/23 01:03:12;;;;;;;8.43;2.60;;;17.00;93.70;;;;;;5052030;28;20515;-75
2022/04/23 01:05:42;;;;;;;4.33;1.97;;;17.00;92.90;;;;;;5051405;28;20557;-74
2022/04/23 01:08:10;;;;;;;7.37;2.37;;;17.10;93.30;;;;;;5052022;28;20458;-73
2022/04/23 01:10:38;;;;;;;7.30;2.20;;;17.20;93.20;;;;;;5051598;28;20462;-73
2022/04/23 01:13:06;;;;;;;4.60;2.17;;;17.20;93.00;;;;;;5051835;28;20478;-72
2022/04/23 01:15:33;;;;;;;6.60;2.37;;;17.30;92.60;;;;;;5052019;28;20508;-72
2022/04/23 01:18:01;;;;;;;5.07;2.17;;;17.30;92.00;;;;;;5051858;28;20511;-74
2022/04/23 01:20:30;;;;;;;7.97;2.60;;;17.30;92.00;;;;;;5051303;28;20986;-72
2022/04/23 01:22:57;;;;;;;7.77;2.60;;;17.30;92.20;;;;;;5051638;28;21218;-73
2022/04/23 01:25:26;;;;;;;6.10;2.20;;;17.10;92.10;;;;;;5051563;28;20968;-73
2022/04/23 01:27:55;;;;;;;10.30;2.40;;;17.10;91.90;;;;;;5051749;28;20484;-73
2022/04/23 01:30:22;;;;;;;7.17;2.70;;;17.10;91.90;;;;;;5051677;28;20452;-72
2022/04/23 01:32:49;;;;;;;8.50;2.87;;;17.10;91.90;;;;;;5051475;28;20526;-72
2022/04/23 01:35:16;;;;;;;9.07;2.70;;;17.10;91.80;;;;;;5051298;28;20821;-72
2022/04/23 01:37:45;;;;;;;12.00;3.17;;;17.10;91.40;;;;;;5051207;28;20466;-71
2022/04/23 01:40:12;;;;;;;9.60;2.60;;;17.20;91.80;;;;;;5051331;28;20507;-72
2022/04/23 01:42:40;;;;;;;7.00;2.40;;;17.20;91.40;;;;;;5051542;28;20481;-72
2022/04/23 01:45:07;;;;;;;5.70;2.50;;;17.20;91.20;;;;;;5051317;28;20465;-72
2022/04/23 01:47:34;;;;;;;8.77;3.17;;;17.30;91.60;;;;;;5051119;28;20453;-73
2022/04/23 01:50:02;;;;;;;6.37;3.00;;;17.20;92.40;;;;;;5050823;28;20477;-72
2022/04/23 01:52:29;;;;;;;6.87;2.70;;;17.10;93.20;;;;;;5051133;28;20457;-72
2022/04/23 01:54:57;;;;;;;8.13;3.30;;;17.00;93.90;;;;;;5050968;28;20469;-73
2022/04/23 01:57:24;;;;;;;8.90;3.20;;;16.80;94.30;;;;;;5050963;28;20473;-71
2022/04/23 01:59:51;;;;;;;7.40;2.67;;;16.50;95.00;;;;;;5050777;28;20989;-71
2022/04/23 02:02:18;;;;;;;5.70;2.63;;;16.20;95.90;;;;;;5050956;28;20857;-71
2022/04/23 02:04:45;;;;;;;6.10;2.77;;;16.00;96.50;;;;;;5050678;28;20473;-72
2022/04/23 02:07:12;;;;;;;6.67;3.13;;;16.00;97.20;;;;;;5050738;28;20458;-72
2022/04/23 02:09:39;;;;;;;5.87;2.70;;;15.90;97.20;;;;;;5050888;28;20453;-72
2022/04/23 02:12:09;;;;;;;6.37;3.10;;;15.90;97.20;;;;;;5050751;28;20454;-74
2022/04/23 02:14:36;;;;;;;6.47;3.50;;;15.90;97.60;;;;;;5050319;28;20465;-73
2022/04/23 02:17:03;;;;;;;5.07;2.87;;;15.90;98.20;;;;;;5049880;28;20454;-72
2022/04/23 02:19:30;;;;;;;5.60;2.90;;;15.90;98.30;;;;;;5050269;28;20446;-70
2022/04/23 02:21:57;;;;;;;6.30;3.20;;;15.80;99.10;;;;;;5050347;28;20454;-71
2022/04/23 02:24:24;;;;;;;8.70;2.90;;;15.80;99.40;;;;;;5050459;28;20863;-73
2022/04/23 02:26:52;;;;;;;7.10;3.33;;;15.80;99.30;;;;;;5050581;28;20449;-73
2022/04/23 02:29:20;;;;;;;5.13;2.53;;;15.70;99.80;;;;;;5050400;28;20453;-72
2022/04/23 02:31:47;;;;;;;12.10;3.37;;;15.60;99.90;;;;;;5050657;28;20849;-74
2022/04/23 02:34:15;;;;;;;6.70;2.80;;;15.50;99.90;;;;;;5050250;28;20478;-73
2022/04/23 02:36:43;;;;;;;6.77;3.57;;;15.30;99.90;;;;;;5050573;28;20863;-73
2022/04/23 02:39:10;;;;;;;6.90;3.10;;;15.40;99.90;;;;;;5050181;28;20560;-72
2022/04/23 02:41:37;;;;;;;6.87;3.30;;;15.40;99.90;;;;;;5049645;28;20489;-73
2022/04/23 02:44:05;;;;;;;8.40;3.40;;;15.50;99.90;;;;;;5050006;28;20478;-71
2022/04/23 02:46:34;;;;;;;6.83;3.33;;;15.30;99.90;;;;;;5050018;28;20933;-73
2022/04/23 02:49:02;;;;;;;7.50;3.27;;;15.20;99.90;;;;;;5049526;28;20485;-72
2022/04/23 02:51:29;;;;;;;6.17;3.90;;;15.20;99.90;;;;;;5049952;28;20566;-73
2022/04/23 02:53:56;;;;;;;7.70;3.53;;;15.00;99.90;;;;;;5049903;28;20474;-73
2022/04/23 02:56:25;;;;;;;12.10;3.53;;;14.90;99.90;;;;;;5048336;28;20450;-73
2022/04/23 02:58:53;;;;;;;9.53;5.00;;;14.70;99.90;;;;;;5049771;28;20544;-72
2022/04/23 03:01:22;;;;;;;5.90;3.20;;;14.60;99.90;;;;;;5049735;28;20501;-72
2022/04/23 03:03:54;;;;;;;6.77;3.47;;;14.70;99.90;;;;;;5049384;28;20473;-72
2022/04/23 03:06:22;;;;;;;5.90;3.40;;;14.70;99.90;;;;;;5049783;28;20961;-73
2022/04/23 03:08:49;;;;;;;6.80;3.00;;;14.90;99.90;;;;;;5049783;28;20868;-73
2022/04/23 03:11:16;;;;;;;6.23;3.77;;;15.00;99.90;;;;;;5049561;28;20457;-72
2022/04/23 03:13:43;;;;;;;7.27;3.47;;;15.00;99.90;;;;;;5049481;28;20853;-72
2022/04/23 03:16:10;;;;;;;7.30;3.17;;;15.00;99.90;;;;;;5049626;28;20785;-73
2022/04/23 03:18:37;;;;;;;6.97;3.30;;;15.10;99.90;;;;;;5049807;28;20503;-72
2022/04/23 03:21:07;;;;;;;6.43;3.27;;;15.00;99.90;;;;;;5049200;28;20493;-72
2022/04/23 03:23:34;;;;;;;8.57;2.93;;;15.00;99.90;;;;;;5049075;28;20477;-71
2022/04/23 03:26:01;;;;;;;5.93;3.27;;;15.00;99.90;;;;;;5049513;28;20462;-72
2022/04/23 03:28:28;;;;;;;7.33;3.47;;;15.00;99.90;;;;;;5049055;28;20450;-73
2022/04/23 03:30:56;;;;;;;6.40;3.20;;;15.00;99.90;;;;;;5049342;28;20446;-72
2022/04/23 03:33:23;;;;;;;6.30;3.13;;;15.20;99.90;;;;;;5048862;28;20589;-73
2022/04/23 03:35:50;;;;;;;5.20;3.03;;;15.10;99.90;;;;;;5048962;28;20576;-71
2022/04/23 03:38:18;;;;;;;5.50;3.17;;;15.20;99.90;;;;;;5049073;28;20465;-71
2022/04/23 03:40:48;;;;;;;12.53;3.20;;;15.30;99.90;;;;;;5049185;28;20521;-72
2022/04/23 03:43:15;;;;;;;6.70;3.37;;;15.30;99.90;;;;;;5049238;28;20589;-72
2022/04/23 03:45:42;;;;;;;8.80;3.93;;;15.10;99.90;;;;;;5049195;28;20527;-72
2022/04/23 03:48:09;;;;;;;6.07;3.67;;;15.20;99.90;;;;;;5049363;28;20529;-72
2022/04/23 03:50:36;;;;;;;7.53;3.03;;;15.20;99.90;;;;;;5048976;28;20922;-72
2022/04/23 03:53:03;;;;;;;8.07;4.10;;;15.40;99.90;;;;;;5049125;28;20520;-72
2022/04/23 03:55:32;;;;;;;6.77;3.13;;;15.40;99.90;;;;;;5049251;28;20458;-72
2022/04/23 03:57:59;;;;;;;6.57;3.77;;;15.20;99.90;;;;;;5049373;28;20453;-72
2022/04/23 04:00:28;;;;;;;7.00;2.73;;;15.40;99.90;;;;;;5049274;28;20581;-72
2022/04/23 04:02:56;;;;;;;6.53;4.00;;;15.50;99.90;;;;;;5049103;28;20501;-72
2022/04/23 04:05:24;;;;;;;7.27;3.43;;;15.50;99.90;;;;;;5049188;28;20450;-73
2022/04/23 04:07:52;;;;;;;12.37;5.00;;;15.60;99.90;;;;;;5049005;28;20604;-72
2022/04/23 04:10:21;;;;;;;9.43;3.73;;;15.50;99.90;;;;;;5047492;28;20461;-73
2022/04/23 04:12:50;;;;;;;6.97;3.63;;;15.50;99.90;;;;;;5049124;28;20949;-72
2022/04/23 04:15:20;;;;;;;10.60;4.40;;;15.40;99.90;;;;;;5049152;28;20977;-71
2022/04/23 04:17:51;;;;;;;10.40;5.33;;;15.30;99.90;;;;;;5049124;28;20454;-70
2022/04/23 04:20:18;;;;;;;7.63;4.30;;;15.30;99.90;;;;;;5048998;28;20489;-74
2022/04/23 04:22:46;;;;;;;9.57;4.37;;;15.20;99.90;;;;;;5048734;28;20489;-74
2022/04/23 04:25:14;;;;;;;11.53;4.53;;;15.20;99.90;;;;;;5048970;28;20454;-72
2022/04/23 04:27:42;;;;;;;8.23;4.80;;;15.10;99.90;;;;;;5047566;28;20461;-73
2022/04/23 04:30:12;;;;;;;8.77;4.63;;;15.10;99.90;;;;;;5048870;28;20457;-73
2022/04/23 04:32:41;;;;;;;9.83;4.10;;;15.20;99.90;;;;;;5048862;28;20488;-72
2022/04/23 04:35:09;;;;;;;8.97;3.80;;;15.30;99.90;;;;;;5048590;28;20946;-72
2022/04/23 04:37:36;;;;;;;8.47;3.93;;;15.30;99.90;;;;;;5048743;28;20453;-73
2022/04/23 04:40:04;;;;;;;9.50;4.57;;;15.40;99.90;;;;;;5049351;28;20450;-72
2022/04/23 04:42:31;;;;;;;10.60;4.37;;;15.30;99.90;;;;;;5052391;28;20461;-71
2022/04/23 04:44:58;;;;;;;8.97;5.30;;;15.30;99.90;;;;;;5052037;28;20957;-71
2022/04/23 04:47:27;;;;;;;7.73;4.17;;;15.20;99.90;;;;;;5052290;28;20900;-73
2022/04/23 04:49:54;;;;;;;9.90;5.10;;;15.20;99.90;;;;;;5052264;28;20486;-72
2022/04/23 04:52:24;;;;;;;17.37;4.90;;;15.30;99.90;;;;;;5052256;28;20450;-73
2022/04/23 04:54:51;;;;;;;9.03;4.23;;;15.30;99.90;;;;;;5052393;28;20442;-72
2022/04/23 04:57:18;;;;;;;8.13;4.53;;;15.40;99.90;;;;;;5052003;28;20458;-73
2022/04/23 04:59:45;;;;;;;8.57;5.03;;;15.50;99.90;;;;;;5052196;28;20502;-71
2022/04/23 05:02:12;;;;;;;10.17;5.77;;;15.60;99.90;;;;;;5052050;28;20940;-75
2022/04/23 05:04:40;;;;;;;6.80;4.50;;;15.70;99.90;;;;;;5054832;28;20580;-76
2022/04/23 05:07:07;;;;;;;7.10;4.10;;;15.70;99.90;;;;;;5052803;28;20461;-75
2022/04/23 05:09:34;;;;;;;11.00;4.33;;;16.00;99.90;;;;;;5052965;28;20443;-80
2022/04/23 05:12:02;;;;;;;11.33;4.90;;;16.00;99.90;;;;;;5052708;28;20465;-75
2022/04/23 05:14:29;;;;;;;8.37;4.53;;;16.10;99.90;;;;;;5052139;28;20470;-79
2022/04/23 05:16:56;;;;;;;9.20;4.40;;;16.20;99.90;;;;;;5052085;28;20449;-76
2022/04/23 05:19:24;;;;;;;9.40;4.50;;;16.30;99.90;;;;;;5051879;28;20858;-78
2022/04/23 05:21:53;;;;;;;12.93;5.33;;;16.30;99.90;;;;;;5051752;28;20976;-75
2022/04/23 05:24:20;;;;;;;13.40;6.23;;;16.30;99.90;;;;;;5051490;28;21053;-80
2022/04/23 05:26:47;;;;;;;14.37;7.00;;;16.30;99.90;;;;;;5051681;28;20461;-78
2022/04/23 05:29:14;;;;;;;10.73;6.77;;;16.20;99.90;;;;;;5051947;28;20466;-75
2022/04/23 05:31:41;;;;;;;9.83;6.43;;;16.30;99.90;;;;;;5052379;28;20446;-73
2022/04/23 05:34:08;;;;;;;14.70;6.33;;;16.20;99.90;;;;;;5051803;28;20790;-77
2022/04/23 05:36:36;;;;;;;11.53;6.20;;;16.30;99.90;;;;;;5051690;28;20926;-81
2022/04/23 05:39:04;;;;;;;10.37;5.53;;;16.40;99.90;;;;;;5051562;28;20437;-77
2022/04/23 05:41:31;;;;;;;8.90;6.03;;;16.40;99.90;;;;;;5051565;28;20486;-79
2022/04/23 05:43:59;;;;;;;9.17;5.40;;;16.50;99.90;;;;;;5051284;28;20481;-79
2022/04/23 05:46:26;;;;;;;11.53;4.90;;;16.50;99.90;;;;;;5051244;28;20572;-81
2022/04/23 05:48:53;;;;;;;10.30;4.90;;;16.60;99.90;;;;;;5051459;28;20565;-78
2022/04/23 05:51:20;;;;;;;12.07;5.43;;;16.60;99.90;;;;;;5050516;28;20450;-79
2022/04/23 05:53:47;;;;;;;8.97;4.80;;;16.80;99.90;;;;;;5050406;28;20553;-76
2022/04/23 05:56:15;;;;;;;9.67;4.63;;;16.80;99.90;;;;;;5051038;28;20453;-74
2022/04/23 05:58:42;;;;;;;8.20;3.80;;;16.90;99.90;;;;;;5052004;28;20453;-77
2022/04/23 06:01:10;;;;;;;7.63;4.23;;;17.00;99.90;;;;;;5051316;28;21002;-73
2022/04/23 06:03:37;;;;;;;9.33;4.20;;;17.10;99.90;;;;;;5051811;28;20576;-75
2022/04/23 06:06:05;;;;;;;7.63;4.20;;;17.30;99.90;;;;;;5052048;28;20454;-77
2022/04/23 06:08:32;;;;;;;8.07;3.67;;;17.40;99.90;;;;;;5051329;28;20466;-75
2022/04/23 06:10:59;;;;;;;6.23;3.80;;;17.40;99.90;;;;;;5050984;28;20458;-75
2022/04/23 06:13:27;;;;;;;8.00;3.80;;;17.40;99.90;;;;;;5051658;28;20529;-74
2022/04/23 06:15:54;;;;;;;7.43;4.07;;;17.50;99.90;;;;;;5051082;28;20454;-77
2022/04/23 06:18:21;;;;;;;6.37;4.50;;;17.60;99.90;;;;;;5050608;28;20457;-73
2022/04/23 06:20:49;;;;;;;10.10;5.50;;;17.80;99.90;;;;;;5050713;28;20458;-76
2022/04/23 06:23:16;;;;;;;10.33;5.43;;;18.00;99.90;;;;;;5050886;28;20909;-72
2022/04/23 06:25:43;;;;;;;9.17;5.67;;;18.30;99.90;;;;;;5051091;28;20450;-75
2022/04/23 06:28:10;;;;;;;8.70;5.70;;;18.60;99.90;;;;;;5051362;28;20954;-75
2022/04/23 06:30:39;;;;;;;11.27;5.90;;;18.80;99.90;;;;;;5050162;28;20870;-72
2022/04/23 06:33:06;;;;;;;9.13;6.20;;;19.00;99.90;;;;;;5049932;28;20497;-69
2022/04/23 06:35:34;;;;;;;10.00;5.77;;;19.20;99.90;;;;;;5050430;28;20442;-74
2022/04/23 06:38:01;;;;;;;9.90;4.83;;;19.30;99.90;;;;;;5050215;28;20450;-65
2022/04/23 06:40:28;;;;;;;8.10;4.80;;;19.60;99.90;;;;;;5050343;28;20536;-73
2022/04/23 06:42:55;;;;;;;8.03;4.80;;;19.70;99.90;;;;;;5050028;28;20500;-73
2022/04/23 06:45:23;;;;;;;7.53;5.20;;;19.60;99.90;;;;;;5050036;28;20865;-77
2022/04/23 06:48:02;;;;;;;7.13;5.30;;;19.80;99.90;;;;;;5049870;28;20460;-74
2022/04/23 06:50:30;;;;;;;7.57;5.20;;;19.90;99.90;;;;;;5049471;28;20489;-72
2022/04/23 06:52:57;;;;;;;9.67;6.03;;;20.00;99.70;;;;;;5049964;28;20969;-71
2022/04/23 06:55:24;;;;;;;12.53;5.10;;;20.20;99.40;;;;;;5050076;28;20450;-71
2022/04/23 06:57:51;;;;;;;11.33;7.03;;;20.20;99.00;;;;;;5051135;28;20457;-72
2022/04/23 07:00:19;;;;;;;9.33;5.80;;;20.30;98.80;;;;;;5057442;28;20454;-72
2022/04/23 07:02:46;;;;;;;9.47;6.20;;;20.20;99.20;;;;;;5053592;28;20846;-71
2022/04/23 07:05:15;;;;;;;12.27;6.13;;;20.30;98.70;;;;;;5050553;28;20462;-79
2022/04/23 07:07:42;;;;;;;10.23;6.70;;;20.40;98.70;;;;;;5050067;28;20461;-71
2022/04/23 07:10:10;;;;;;;9.60;5.77;;;20.50;98.30;;;;;;5049308;28;20465;-74
2022/04/23 07:12:37;;;;;;;8.80;6.07;;;20.30;98.40;;;;;;5049973;28;20457;-76
2022/04/23 07:15:05;;;;;;;11.07;6.10;;;20.30;98.90;;;;;;5049668;28;20446;-70
2022/04/23 07:17:32;;;;;;;10.90;6.20;;;20.40;99.30;;;;;;5049849;28;20452;-70
2022/04/23 07:19:59;;;;;;;10.23;6.70;;;20.40;99.80;;;;;;5049593;28;20461;-71
2022/04/23 07:22:28;;;;;;;9.27;5.90;;;20.60;99.60;;;;;;5049647;28;20486;-71
2022/04/23 07:24:55;;;;;;;8.93;4.57;;;20.70;99.70;;;;;;5049732;28;20537;-72
2022/04/23 07:27:23;;;;;;;9.83;3.80;;;20.90;99.10;;;;;;5049594;28;20453;-72
2022/04/23 07:29:51;;;;;;;8.10;3.80;;;21.00;99.20;;;;;;5049385;28;20886;-70
2022/04/23 07:32:20;;;;;;;7.33;3.10;;;21.30;98.90;;;;;;5049297;28;20939;-70
2022/04/23 07:37:33;;;;;;;5.37;3.30;;;21.40;98.30;;;;;;5049543;28;20434;-70
2022/04/23 07:40:02;;;;;;;4.97;2.60;;;21.30;97.60;;;;;;5049256;28;20453;-70
2022/04/23 07:42:29;;;;;;;9.93;3.53;;;21.40;97.40;;;;;;5048975;28;20917;-72
2022/04/23 07:44:57;;;;;;;7.33;2.77;;;21.40;96.90;;;;;;5049087;28;20461;-71
2022/04/23 07:47:24;;;;;;;9.53;2.93;;;21.40;96.20;;;;;;5049212;28;20458;-71
2022/04/23 07:49:51;;;;;;;6.50;3.20;;;21.30;96.50;;;;;;5049065;28;20489;-72
2022/04/23 07:52:18;;;;;;;9.87;3.53;;;21.10;96.80;;;;;;5049277;28;20479;-72
2022/04/23 07:54:48;;;;;;;8.43;3.77;;;21.00;96.90;;;;;;5049213;28;20953;-72
2022/04/23 07:57:15;;;;;;;7.97;3.30;;;20.70;97.30;;;;;;5049390;28;20458;-72
2022/04/23 07:59:42;;;;;;;6.37;3.13;;;20.60;97.90;;;;;;5049516;28;20450;-71
2022/04/23 08:02:10;;;;;;;6.77;3.10;;;20.40;98.60;;;;;;5049396;28;20492;-71
2022/04/23 08:04:37;;;;;;;5.87;3.77;;;20.20;99.50;;;;;;5048721;28;20466;-71
2022/04/23 08:07:04;;;;;;;7.87;3.20;;;19.80;99.90;;;;;;5048765;28;20458;-72
2022/04/23 08:09:37;;;;;;;8.83;3.70;;;19.50;99.90;;;;;;5048796;28;20457;-72
2022/04/23 08:12:07;;;;;;;6.10;3.40;;;19.30;99.90;;;;;;5049163;28;20531;-72
2022/04/23 08:14:35;;;;;;;6.47;3.07;;;19.30;99.90;;;;;;5048894;28;20477;-72
2022/04/23 08:17:02;;;;;;;6.33;3.60;;;19.30;99.90;;;;;;5052905;28;20457;-72
2022/04/23 08:19:29;;;;;;;11.23;3.30;;;19.20;99.90;;;;;;5052738;28;20938;-71
2022/04/23 08:21:56;;;;;;;5.20;3.20;;;19.30;99.90;;;;;;5052585;28;20485;-70
2022/04/23 08:24:24;;;;;;;9.40;3.30;;;19.60;99.90;;;;;;5052666;28;20480;-72
2022/04/23 08:26:51;;;;;;;5.63;2.90;;;19.80;99.90;;;;;;5052431;28;20457;-72
2022/04/23 08:32:04;;;;;;;5.00;2.50;;;19.40;99.90;;;;;;5052507;28;20476;-72
2022/04/23 08:34:31;;;;;;;6.20;2.73;;;19.00;99.90;;;;;;5052174;28;20478;-71
2022/04/23 08:36:59;;;;;;;15.00;2.50;;;19.00;99.90;;;;;;5052686;28;20453;-71
2022/04/23 08:39:26;;;;;;;6.40;2.40;;;19.10;99.90;;;;;;5052624;28;20457;-71
2022/04/23 08:41:53;;;;;;;5.30;2.00;;;18.90;99.90;;;;;;5052489;28;20497;-72
2022/04/23 08:44:22;;;;;;;5.00;1.87;;;18.90;99.90;;;;;;5052671;28;20937;-71
2022/04/23 08:46:52;;;;;;;6.63;2.20;;;18.90;99.90;;;;;;5052088;28;20552;-71
2022/04/23 08:49:19;;;;;;;6.93;1.97;;;18.90;99.90;;;;;;5051910;28;20986;-71
2022/04/23 08:51:53;;;;;;;5.93;2.00;;;18.90;99.90;;;;;;5052436;28;20442;-71
2022/04/23 08:54:24;;;;;;;8.47;2.00;;;18.90;99.90;;;;;;5052117;28;20469;-70
2022/04/23 08:56:51;;;;;;;7.50;2.13;;;19.20;99.90;;;;;;5052331;28;20827;-70
2022/04/23 08:59:20;;;;;;;5.83;2.10;;;19.40;99.90;;;;;;5051981;28;20454;-71
2022/04/23 09:01:48;;;;;;;5.50;1.70;;;19.30;99.90;;;;;;5052105;28;20495;-70
2022/04/23 09:04:16;;;;;;;4.60;1.80;;;19.30;99.90;;;;;;5052040;28;20474;-71
2022/04/23 09:06:44;;;;;;;5.00;1.70;;;19.20;99.90;;;;;;5052126;28;20453;-69
2022/04/23 09:09:13;;;;;;;7.70;2.07;;;19.30;99.90;;;;;;5052028;28;20784;-72
2022/04/23 09:11:42;;;;;;;4.23;2.00;;;19.30;99.90;;;;;;5051936;28;20522;-71
2022/04/23 09:14:10;;;;;;;5.47;1.80;;;19.30;99.90;;;;;;5051713;28;20474;-72
2022/04/23 09:25:10;;;;;;;9.73;2.03;;;20.50;99.20;;;;;;5052109;28;20429;-72
2022/04/23 09:27:37;;;;;;;5.17;1.70;;;20.30;98.90;;;;;;5051730;28;20454;-71
2022/04/23 09:30:07;;;;;;;4.20;1.83;;;20.00;99.10;;;;;;5051559;28;20466;-72
2022/04/23 09:32:36;;;;;;;9.80;2.10;;;19.90;99.30;;;;;;5051372;28;20453;-71
2022/04/23 09:35:11;;;;;;;5.63;1.90;;;19.90;99.50;;;;;;5051408;28;20453;-71
2022/04/23 09:40:26;;;;;;;5.80;1.90;;;19.80;99.30;;;;;;5051593;28;20441;-71
2022/04/23 09:43:01;;;;;;;7.03;1.53;;;19.70;99.40;;;;;;5051201;28;20497;-70
2022/04/23 09:45:30;;;;;;;6.00;2.00;;;19.70;99.80;;;;;;5051305;28;20843;-70
2022/04/23 09:48:18;;;;;;;4.50;2.10;;;19.60;99.90;;;;;;5051036;28;20877;-71
2022/04/23 09:50:47;;;;;;;5.83;2.30;;;19.60;99.90;;;;;;5051319;28;20751;-70
2022/04/23 09:53:17;;;;;;;8.53;2.13;;;19.40;99.90;;;;;;5051070;28;20465;-72
2022/04/23 09:55:45;;;;;;;5.50;2.10;;;19.40;99.90;;;;;;5051230;28;20453;-70
2022/04/23 09:58:13;;;;;;;5.70;2.13;;;19.30;99.90;;;;;;5050937;28;20969;-70
2022/04/23 10:00:41;;;;;;;5.27;2.70;;;19.40;99.90;;;;;;5051126;28;20449;-71
2022/04/23 10:03:10;;;;;;;8.90;2.40;;;19.60;99.90;;;;;;5050919;28;20494;-71
2022/04/23 10:05:40;;;;;;;11.10;2.53;;;19.60;99.90;;;;;;5051117;28;20461;-70
2022/04/23 10:08:12;;;;;;;7.13;2.60;;;19.60;99.90;;;;;;5050714;28;20450;-70
2022/04/23 10:10:43;;;;;;;4.73;2.20;;;19.70;99.90;;;;;;5050662;28;20864;-71
2022/04/23 10:13:12;;;;;;;5.77;2.13;;;20.20;99.90;;;;;;5050554;28;20470;-72
2022/04/23 10:15:42;;;;;;;7.50;2.33;;;20.50;99.90;;;;;;5050680;28;20485;-71
2022/04/23 10:18:11;;;;;;;5.57;2.60;;;20.90;99.90;;;;;;5050679;28;20545;-70
2022/04/23 10:20:40;;;;;;;5.77;2.50;;;21.30;98.80;;;;;;5050475;28;20453;-70
2022/04/23 10:23:19;;;;;;;6.97;2.40;;;21.70;97.80;;;;;;5050357;28;20930;-71
2022/04/23 10:25:50;;;;;;;8.17;2.27;;;22.20;97.20;;;;;;5050522;28;20538;-70
2022/04/23 10:28:19;;;;;;;7.90;2.23;;;22.40;95.70;;;;;;5050597;28;20486;-71
2022/04/23 10:30:49;;;;;;;4.60;1.90;;;22.50;94.40;;;;;;5050398;28;20874;-71
2022/04/23 10:33:28;;;;;;;8.27;2.80;;;22.60;94.40;;;;;;5050377;28;20470;-71
2022/04/23 10:36:10;;;;;;;6.17;2.43;;;23.00;93.30;;;;;;5050299;28;20541;-71
2022/04/23 10:38:42;;;;;;;10.93;2.63;;;23.20;91.60;;;;;;5049799;28;20456;-71
2022/04/23 10:41:11;;;;;;;7.73;2.23;;;22.90;91.10;;;;;;5049812;28;20450;-71
2022/04/23 10:43:50;;;;;;;10.23;2.30;;;23.00;91.60;;;;;;5049997;28;20497;-71
2022/04/23 10:46:49;;;;;;;8.23;2.50;;;23.40;90.20;;;;;;5050116;28;20465;-71
2022/04/23 10:49:19;;;;;;;7.10;2.70;;;23.50;89.50;;;;;;5049857;28;20936;-70
2022/04/23 10:51:48;;;;;;;8.63;2.63;;;23.70;88.30;;;;;;5049774;28;20464;-71
2022/04/23 10:54:16;;;;;;;4.67;2.17;;;23.70;87.80;;;;;;5050149;28;20477;-79
2022/04/23 10:56:44;;;;;;;5.70;2.87;;;23.80;87.70;;;;;;5050296;28;20462;-81
2022/04/23 10:59:33;;;;;;;8.60;3.10;;;23.90;87.20;;;;;;5050292;28;20535;-79
2022/04/23 11:02:06;;;;;;;7.50;2.40;;;24.00;86.40;;;;;;5049887;28;20839;-74
2022/04/23 11:04:35;;;;;;;9.00;2.53;;;23.80;85.30;;;;;;5049901;28;20481;-75
2022/04/23 11:12:36;;;;;;;9.80;2.40;;;23.40;87.00;;;;;;5049270;28;20429;-74
2022/04/23 11:15:14;;;;;;;8.80;2.70;;;24.00;85.20;;;;;;5049598;28;20453;-76
2022/04/23 11:18:03;;;;;;;10.33;2.50;;;24.40;81.70;;;;;;5049758;28;20994;-73
2022/04/23 11:20:36;;;;;;;7.37;2.27;;;24.40;79.80;;;;;;5044876;28;20465;-72
2022/04/23 11:23:05;;;;;;;12.20;3.10;;;24.20;80.80;;;;;;5049329;28;20609;-72
2022/04/23 11:25:34;;;;;;;5.73;2.60;;;24.40;79.00;;;;;;5049406;28;20473;-72
2022/04/23 11:28:16;;;;;;;7.33;2.20;;;24.40;78.90;;;;;;5049187;28;20892;-72
2022/04/23 11:30:43;;;;;;;9.50;3.27;;;24.70;81.20;;;;;;5049312;28;20503;-71
2022/04/23 11:33:14;;;;;;;10.27;3.83;;;25.00;79.00;;;;;;5049070;28;20522;-71
2022/04/23 11:35:43;;;;;;;7.97;2.20;;;25.20;76.80;;;;;;5049096;28;20450;-72
2022/04/23 11:38:25;;;;;;;7.33;2.30;;;25.00;77.20;;;;;;5049445;28;20445;-72
2022/04/23 11:40:52;;;;;;;6.97;2.43;;;24.70;75.30;;;;;;5049350;28;20510;-72
2022/04/23 11:43:37;;;;;;;8.00;2.43;;;24.70;75.00;;;;;;5049309;28;20971;-72
2022/04/23 11:46:06;;;;;;;6.90;2.33;;;24.70;76.00;;;;;;5049425;28;20458;-72
2022/04/23 11:48:43;;;;;;;4.50;1.83;;;25.00;75.70;;;;;;5048990;28;20568;-72
2022/04/23 11:51:13;;;;;;;10.13;2.60;;;24.80;74.50;;;;;;5051725;28;20460;-71
2022/04/23 11:53:52;;;;;;;6.63;1.87;;;24.40;75.50;;;;;;5053332;28;21016;-72
2022/04/23 11:56:28;;;;;;;7.73;2.10;;;24.10;76.30;;;;;;5053171;28;20446;-73
2022/04/23 11:58:57;;;;;;;7.10;1.97;;;23.60;77.70;;;;;;5053796;28;20544;-73
2022/04/23 12:01:25;;;;;;;15.10;2.10;;;23.20;80.20;;;;;;5053279;28;20489;-73
2022/04/23 12:03:53;;;;;;;7.50;2.10;;;22.70;84.50;;;;;;5053199;28;20496;-74
2022/04/23 12:06:22;;;;;;;6.43;1.73;;;22.40;86.70;;;;;;5053435;28;20453;-74
2022/04/23 12:08:50;;;;;;;8.23;2.37;;;22.10;88.50;;;;;;5053004;28;20963;-74
2022/04/23 12:11:24;;;;;;;6.70;1.70;;;21.90;89.50;;;;;;5052923;28;20465;-75
2022/04/23 12:13:51;;;;;;;6.60;1.53;;;21.70;87.50;;;;;;5052999;28;20469;-74
2022/04/23 12:16:35;;;;;;;4.23;1.20;;;21.40;88.00;;;;;;5053011;28;20491;-67
2022/04/23 12:19:03;;;;;;;6.10;1.53;;;21.40;87.40;;;;;;5053104;28;20503;-69
2022/04/23 12:21:32;;;;;;;5.97;1.30;;;21.80;86.10;;;;;;5052915;28;20797;-70
2022/04/23 12:24:00;;;;;;;4.23;1.10;;;22.20;82.00;;;;;;5052711;28;20504;-74
2022/04/23 12:26:32;;;;;;;5.70;1.47;;;22.60;80.80;;;;;;5052890;28;20457;-72
2022/04/23 12:43:25;;;;;;;8.37;2.10;;;24.20;72.20;;;;;;5052499;28;20496;-73
2022/04/23 12:46:05;;;;;;;7.60;1.57;;;24.00;71.60;;;;;;5052350;28;20485;-77
2022/04/23 12:48:33;;;;;;;6.07;1.50;;;23.70;72.00;;;;;;5052128;28;20503;-72
2022/04/23 12:51:08;;;;;;;6.63;1.47;;;23.80;73.10;;;;;;5052369;28;20492;-71
2022/04/23 12:53:37;;;;;;;5.03;1.57;;;24.00;72.60;;;;;;5052158;28;20480;-74
2022/04/23 12:56:08;;;;;;;4.27;1.60;;;24.10;72.80;;;;;;5051740;28;20822;-75
2022/04/23 12:58:35;;;;;;;8.03;1.77;;;24.40;72.70;;;;;;5052233;28;20449;-74
2022/04/23 13:01:02;;;;;;;12.90;1.87;;;24.60;72.30;;;;;;5051616;28;20446;-74
2022/04/23 13:03:35;;;;;;;6.10;1.47;;;24.80;70.30;;;;;;5052058;28;20490;-71
2022/04/23 13:06:04;;;;;;;9.67;2.10;;;25.10;69.10;;;;;;5052113;28;20942;-69
2022/04/23 13:11:29;;;;;;;6.37;1.33;;;24.40;69.70;;;;;;5052247;28;20929;-72
2022/04/23 13:13:59;;;;;;;7.30;1.67;;;24.30;70.40;;;;;;5051620;28;20469;-69
2022/04/23 13:16:27;;;;;;;5.30;1.10;;;24.20;70.70;;;;;;5051616;28;20964;-73
2022/04/23 13:18:55;;;;;;;5.17;1.40;;;24.30;73.50;;;;;;5051863;28;20548;-74
2022/04/23 13:21:24;;;;;;;5.63;1.60;;;24.40;71.60;;;;;;5052044;28;20486;-72
2022/04/23 13:23:52;;;;;;;7.33;1.67;;;24.60;72.40;;;;;;5051675;28;20496;-73
2022/04/23 13:26:21;;;;;;;7.07;1.50;;;24.70;70.50;;;;;;5051951;28;20953;-73
2022/04/23 13:28:48;;;;;;;7.30;1.90;;;24.60;71.00;;;;;;5051325;28;20446;-72
2022/04/23 13:31:15;;;;;;;10.93;1.93;;;24.50;71.50;;;;;;5051645;28;20457;-73
2022/04/23 13:33:43;;;;;;;8.30;1.70;;;24.70;71.00;;;;;;5051659;28;20462;-73